Time;durP1;ratioP1;P1;durP2;ratioP2;P2;SDS_P1;SDS_P2;PMS_P1;PMS_P2;Temp;Humidity;BMP_temperature;BMP_pressure;BME280_temperature;BME280_humidity;BME280_pressure;Samples;Min_cycle;Max_cycle;Signal;HPM_P1;HPM_P2
2023/04/07 00:00:26;;;;;;;27.33;24.75;;;1.90;99.90;;;;;;5060655;28;20590;-43
2023/04/07 00:02:52;;;;;;;27.10;24.70;;;1.80;99.90;;;;;;5059125;28;20181;-45
2023/04/07 00:05:18;;;;;;;26.83;24.43;;;1.80;99.90;;;;;;5059462;28;20197;-47
2023/04/07 00:07:43;;;;;;;27.33;25.00;;;1.70;99.90;;;;;;5060251;28;20666;-43
2023/04/07 00:10:09;;;;;;;28.37;25.77;;;1.70;99.90;;;;;;5060942;28;20594;-45
2023/04/07 00:12:35;;;;;;;27.88;25.33;;;1.60;99.90;;;;;;5059471;28;20185;-49
2023/04/07 00:15:01;;;;;;;26.73;24.50;;;1.60;99.90;;;;;;5059553;28;20226;-48
2023/04/07 00:17:26;;;;;;;27.87;25.47;;;1.50;99.90;;;;;;5059922;28;20597;-47
2023/04/07 00:19:52;;;;;;;27.27;24.87;;;1.40;99.90;;;;;;5060468;28;20843;-44
2023/04/07 00:22:18;;;;;;;27.13;24.83;;;1.40;99.90;;;;;;5060213;28;20260;-45
2023/04/07 00:24:43;;;;;;;27.10;24.47;;;1.40;99.90;;;;;;5059149;28;20648;-49
2023/04/07 00:27:10;;;;;;;26.20;24.00;;;1.40;99.90;;;;;;5060523;28;20185;-45
2023/04/07 00:29:35;;;;;;;26.23;24.02;;;1.40;99.90;;;;;;5059187;28;20200;-46
2023/04/07 00:32:01;;;;;;;26.67;24.43;;;1.30;99.90;;;;;;5059532;28;20193;-44
2023/04/07 00:34:27;;;;;;;27.33;25.13;;;1.20;99.90;;;;;;5059114;28;20750;-48
2023/04/07 00:36:52;;;;;;;27.13;24.80;;;1.20;99.90;;;;;;5060034;28;20186;-47
2023/04/07 00:39:19;;;;;;;26.90;24.50;;;1.20;99.90;;;;;;5060090;28;20181;-49
2023/04/07 00:41:45;;;;;;;25.75;23.60;;;1.20;99.90;;;;;;5060091;28;20184;-44
2023/04/07 00:44:11;;;;;;;26.38;24.27;;;1.10;99.90;;;;;;5058887;28;21149;-46
2023/04/07 00:46:37;;;;;;;26.80;24.60;;;1.10;99.90;;;;;;5060842;28;20185;-46
2023/04/07 00:49:03;;;;;;;25.60;23.43;;;1.10;99.90;;;;;;5060117;28;20196;-45
2023/04/07 00:51:30;;;;;;;25.43;23.33;;;1.10;99.90;;;;;;5060122;28;20177;-44
2023/04/07 00:53:56;;;;;;;26.50;24.15;;;1.00;99.90;;;;;;5058821;28;20568;-43
2023/04/07 00:56:21;;;;;;;26.07;23.97;;;1.00;99.90;;;;;;5060153;28;20636;-45
2023/04/07 00:58:47;;;;;;;25.70;23.40;;;1.00;99.90;;;;;;5042206;28;20960;-47
2023/04/07 01:01:21;;;;;;;26.33;24.13;;;1.00;99.90;;;;;;5063353;28;20231;-48
2023/04/07 01:04:08;;;;;;;25.83;23.58;;;1.00;99.90;;;;;;5062453;28;20200;-42
2023/04/07 01:06:37;;;;;;;24.98;22.83;;;0.90;99.90;;;;;;5063125;28;20200;-46
2023/04/07 01:09:04;;;;;;;25.42;23.42;;;0.90;99.90;;;;;;5063353;28;20809;-45
2023/04/07 01:11:38;;;;;;;26.73;24.50;;;0.90;99.90;;;;;;5062611;28;20193;-45
2023/04/07 01:14:06;;;;;;;26.40;24.00;;;0.80;99.90;;;;;;5061030;28;20193;-47
2023/04/07 01:16:38;;;;;;;27.45;25.00;;;0.80;99.90;;;;;;5063972;28;20185;-45
2023/04/07 01:19:23;;;;;;;27.67;25.13;;;0.80;99.90;;;;;;5063495;28;20251;-46
2023/04/07 01:21:51;;;;;;;27.40;25.05;;;0.70;99.90;;;;;;5063298;28;20220;-46
2023/04/07 01:24:55;;;;;;;26.95;24.55;;;0.70;99.90;;;;;;5062006;28;20230;-48
2023/04/07 01:27:33;;;;;;;25.20;22.80;;;0.70;99.90;;;;;;5063182;28;20185;-43
2023/04/07 01:30:01;;;;;;;27.40;24.90;;;0.60;99.90;;;;;;5063498;28;20196;-49
2023/04/07 01:32:29;;;;;;;25.55;23.35;;;0.60;99.90;;;;;;5062665;28;20181;-45
2023/04/07 01:34:57;;;;;;;26.38;24.08;;;0.60;99.90;;;;;;5044747;28;20728;-48
2023/04/07 01:37:25;;;;;;;27.30;24.85;;;0.50;99.90;;;;;;5061726;28;20632;-46
2023/04/07 01:39:51;;;;;;;26.20;23.92;;;0.50;99.90;;;;;;5062658;28;20632;-45
2023/04/07 01:42:19;;;;;;;26.60;24.40;;;0.50;99.90;;;;;;5062994;28;20208;-43
2023/04/07 01:44:46;;;;;;;27.02;24.65;;;0.40;99.90;;;;;;5062045;28;20234;-44
2023/04/07 01:47:14;;;;;;;27.20;24.70;;;0.40;99.90;;;;;;5063154;28;20177;-45
2023/04/07 01:49:40;;;;;;;25.45;23.25;;;0.30;99.90;;;;;;5062789;28;20216;-48
2023/04/07 01:52:07;;;;;;;26.67;24.35;;;0.30;99.90;;;;;;5063263;28;20707;-44
2023/04/07 01:54:34;;;;;;;27.48;25.13;;;0.30;99.90;;;;;;5061608;28;20220;-47
2023/04/07 01:57:00;;;;;;;28.10;25.60;;;0.20;99.90;;;;;;5062485;28;20737;-47
2023/04/07 01:59:26;;;;;;;27.02;24.45;;;0.20;99.90;;;;;;5062791;28;20235;-43
2023/04/07 02:01:52;;;;;;;28.20;25.77;;;0.20;99.90;;;;;;5062361;28;20185;-44
2023/04/07 02:04:37;;;;;;;28.43;25.90;;;0.20;99.90;;;;;;5062092;28;20210;-43
2023/04/07 02:07:17;;;;;;;26.88;24.50;;;0.10;99.90;;;;;;5062058;28;20181;-44
2023/04/07 02:09:45;;;;;;;27.65;25.13;;;0.10;99.90;;;;;;5062506;28;20181;-44
2023/04/07 02:12:14;;;;;;;27.35;24.85;;;0.10;99.90;;;;;;5062323;28;20181;-45
2023/04/07 02:14:41;;;;;;;27.25;24.85;;;0.10;99.90;;;;;;5061814;28;20200;-48
2023/04/07 02:17:08;;;;;;;26.50;24.10;;;0.10;99.90;;;;;;5061821;28;20263;-45
2023/04/07 02:19:35;;;;;;;26.73;24.20;;;0.10;99.90;;;;;;5044514;28;20177;-46
2023/04/07 02:22:05;;;;;;;26.70;24.30;;;0.00;99.90;;;;;;5062367;28;20256;-46
2023/04/07 02:24:31;;;;;;;28.65;25.95;;;0.00;99.90;;;;;;5061001;28;20570;-45
2023/04/07 02:26:57;;;;;;;29.20;26.50;;;0.00;99.90;;;;;;5061973;28;20185;-44
2023/04/07 02:29:23;;;;;;;27.30;24.70;;;0.00;99.90;;;;;;5062107;28;20188;-43
2023/04/07 02:31:48;;;;;;;28.33;25.63;;;0.00;99.90;;;;;;5062628;28;20547;-47
2023/04/07 02:34:15;;;;;;;28.03;25.43;;;-0.10;99.90;;;;;;5061476;28;20307;-44
2023/04/07 02:36:40;;;;;;;26.90;24.40;;;-0.10;99.90;;;;;;5061723;28;20239;-44
2023/04/07 02:39:06;;;;;;;28.67;26.13;;;-0.10;99.90;;;;;;5062248;28;20181;-44
2023/04/07 02:41:32;;;;;;;28.93;26.40;;;-0.10;99.90;;;;;;5043838;28;20185;-45
2023/04/07 02:43:57;;;;;;;28.47;26.07;;;-0.20;99.90;;;;;;5061523;28;20809;-43
2023/04/07 02:46:23;;;;;;;28.13;25.43;;;-0.20;99.90;;;;;;5061855;28;20184;-50
2023/04/07 02:48:49;;;;;;;28.00;25.27;;;-0.20;99.90;;;;;;5062469;28;20959;-48
2023/04/07 02:51:15;;;;;;;26.77;24.30;;;-0.20;99.90;;;;;;5061981;28;20173;-50
2023/04/07 02:53:40;;;;;;;28.53;25.93;;;-0.10;99.90;;;;;;5061200;28;20463;-49
2023/04/07 02:56:06;;;;;;;26.40;23.90;;;-0.10;99.90;;;;;;5061344;28;20203;-44
2023/04/07 02:58:31;;;;;;;27.17;24.70;;;-0.10;99.90;;;;;;5061603;28;20188;-46
2023/04/07 03:00:57;;;;;;;27.20;24.77;;;-0.10;99.90;;;;;;5062226;28;20192;-45
2023/04/07 03:03:23;;;;;;;27.07;24.37;;;-0.10;99.90;;;;;;5061253;28;20299;-44
2023/04/07 03:05:48;;;;;;;28.83;26.13;;;-0.10;99.90;;;;;;5062177;28;20216;-48
2023/04/07 03:08:14;;;;;;;27.83;25.20;;;-0.10;99.90;;;;;;5060898;28;20615;-47
2023/04/07 03:10:40;;;;;;;27.73;25.10;;;-0.10;99.90;;;;;;5061449;28;20276;-44
2023/04/07 03:13:07;;;;;;;26.47;24.17;;;-0.10;99.90;;;;;;5042930;28;20233;-45
2023/04/07 03:15:32;;;;;;;28.52;25.60;;;-0.20;99.90;;;;;;5060980;28;20219;-46
2023/04/07 03:17:58;;;;;;;26.83;24.63;;;-0.20;99.90;;;;;;5060202;28;20694;-46
2023/04/07 03:20:23;;;;;;;26.83;24.37;;;-0.20;99.90;;;;;;5061021;28;20181;-44
2023/04/07 03:22:49;;;;;;;28.50;25.90;;;-0.20;99.90;;;;;;5060679;28;20225;-48
2023/04/07 03:25:15;;;;;;;26.83;24.53;;;-0.20;99.90;;;;;;5059586;28;20224;-48
2023/04/07 03:27:40;;;;;;;28.40;25.70;;;-0.20;99.90;;;;;;5060837;28;20699;-45
2023/04/07 03:30:07;;;;;;;27.10;24.70;;;-0.20;99.90;;;;;;5061159;28;20227;-48
2023/04/07 03:32:33;;;;;;;26.73;24.40;;;-0.20;99.90;;;;;;5061439;28;20533;-44
2023/04/07 03:34:58;;;;;;;25.57;23.37;;;-0.20;99.90;;;;;;5060264;28;20216;-44
2023/04/07 03:37:24;;;;;;;26.70;24.13;;;-0.10;99.90;;;;;;5060698;28;20184;-47
2023/04/07 03:39:50;;;;;;;25.90;23.63;;;-0.10;99.90;;;;;;5061159;28;20181;-45
2023/04/07 03:42:15;;;;;;;25.50;23.10;;;-0.10;99.90;;;;;;5061420;28;20180;-48
2023/04/07 03:44:41;;;;;;;26.00;23.70;;;-0.10;99.90;;;;;;5059886;28;20274;-47
2023/04/07 03:47:07;;;;;;;25.07;22.87;;;-0.20;99.90;;;;;;5060283;28;20446;-45
2023/04/07 03:49:32;;;;;;;26.87;24.47;;;-0.20;99.90;;;;;;5061127;28;20209;-42
2023/04/07 03:51:58;;;;;;;27.00;24.70;;;-0.10;99.90;;;;;;5042452;28;20197;-44
2023/04/07 03:54:23;;;;;;;26.33;23.83;;;-0.10;99.90;;;;;;5059830;28;20200;-46
2023/04/07 03:56:49;;;;;;;25.33;23.17;;;-0.10;99.90;;;;;;5060467;28;20834;-44
2023/04/07 03:59:14;;;;;;;26.60;24.20;;;-0.10;99.90;;;;;;5061148;28;20557;-43
2023/04/07 04:01:40;;;;;;;26.17;23.77;;;-0.10;99.90;;;;;;5058531;28;20234;-43
2023/04/07 04:04:06;;;;;;;27.50;24.90;;;-0.10;99.90;;;;;;5059566;28;20250;-45
2023/04/07 04:06:31;;;;;;;27.80;25.30;;;-0.10;99.90;;;;;;5060230;28;20191;-46
2023/04/07 04:08:57;;;;;;;28.50;25.90;;;0.00;99.90;;;;;;5061167;28;20789;-43
2023/04/07 04:11:22;;;;;;;27.47;25.00;;;0.00;99.90;;;;;;5060493;28;20239;-44
2023/04/07 04:13:48;;;;;;;27.70;25.20;;;-0.10;99.90;;;;;;5059374;28;20260;-45
2023/04/07 04:16:14;;;;;;;28.83;26.30;;;-0.10;99.90;;;;;;5059973;28;20869;-50
2023/04/07 04:18:40;;;;;;;28.27;25.30;;;-0.10;99.90;;;;;;5042428;28;20186;-46
2023/04/07 04:21:06;;;;;;;29.77;26.97;;;-0.10;99.90;;;;;;5059969;28;21366;-43
2023/04/07 04:23:32;;;;;;;27.98;25.30;;;-0.10;99.90;;;;;;5059091;28;20228;-48
2023/04/07 04:25:59;;;;;;;26.80;24.40;;;-0.10;99.90;;;;;;5059982;28;20188;-44
2023/04/07 04:28:25;;;;;;;28.65;26.15;;;-0.10;99.90;;;;;;5059997;28;20191;-44
2023/04/07 04:30:50;;;;;;;27.20;24.40;;;-0.10;99.90;;;;;;5059714;28;20188;-48
2023/04/07 04:33:16;;;;;;;29.03;26.43;;;-0.10;99.90;;;;;;5060579;28;20470;-44
2023/04/07 04:35:42;;;;;;;29.27;26.47;;;-0.10;99.90;;;;;;5059528;28;20523;-45
2023/04/07 04:38:07;;;;;;;28.98;26.38;;;-0.20;99.90;;;;;;5059822;28;20181;-44
2023/04/07 04:40:33;;;;;;;28.07;25.37;;;-0.20;99.90;;;;;;5060064;28;20195;-44
2023/04/07 04:42:59;;;;;;;28.30;25.80;;;-0.20;99.90;;;;;;5060102;28;20250;-46
2023/04/07 04:45:24;;;;;;;28.67;25.97;;;-0.20;99.90;;;;;;5058717;28;20682;-47
2023/04/07 04:47:50;;;;;;;28.80;26.20;;;-0.20;99.90;;;;;;5059352;28;20479;-48
2023/04/07 04:50:16;;;;;;;28.03;25.33;;;-0.20;99.90;;;;;;5059319;28;20189;-48
2023/04/07 04:52:43;;;;;;;27.20;24.87;;;-0.30;99.90;;;;;;5060359;28;20655;-48
2023/04/07 04:55:09;;;;;;;28.20;25.50;;;-0.30;99.90;;;;;;5059010;28;20188;-44
2023/04/07 04:57:35;;;;;;;28.70;25.83;;;-0.30;99.90;;;;;;5058560;28;20184;-49
2023/04/07 05:00:01;;;;;;;26.10;23.70;;;-0.30;99.90;;;;;;5059192;28;20412;-48
2023/04/07 05:02:27;;;;;;;27.58;25.08;;;-0.20;99.90;;;;;;5059253;28;20200;-46
2023/04/07 05:04:52;;;;;;;26.80;24.50;;;-0.20;99.90;;;;;;5059523;28;20269;-49
2023/04/07 05:07:18;;;;;;;25.97;23.77;;;-0.20;99.90;;;;;;5060029;28;21301;-46
2023/04/07 05:09:43;;;;;;;28.20;25.60;;;-0.10;99.90;;;;;;5060869;28;20192;-49
2023/04/07 05:12:09;;;;;;;27.33;24.83;;;-0.10;99.90;;;;;;5058429;28;20220;-44
2023/04/07 05:14:34;;;;;;;28.60;25.90;;;-0.10;99.90;;;;;;5058516;28;20217;-46
2023/04/07 05:17:00;;;;;;;27.63;24.90;;;0.00;99.90;;;;;;5060245;28;20272;-48
2023/04/07 05:19:28;;;;;;;25.43;23.27;;;0.10;99.90;;;;;;5058999;28;20631;-45
2023/04/07 05:21:54;;;;;;;27.13;24.73;;;0.10;99.90;;;;;;5057582;28;20713;-47
2023/04/07 05:24:19;;;;;;;26.60;24.10;;;0.20;99.90;;;;;;5059872;28;20264;-47
2023/04/07 05:26:45;;;;;;;27.83;25.47;;;0.20;99.90;;;;;;5059798;28;20339;-48
2023/04/07 05:29:10;;;;;;;27.13;24.63;;;0.20;99.90;;;;;;5059825;28;20214;-45
2023/04/07 05:31:36;;;;;;;27.63;25.13;;;0.30;99.90;;;;;;5058397;28;20185;-45
2023/04/07 05:34:02;;;;;;;25.87;23.47;;;0.30;99.90;;;;;;5059795;28;20223;-47
2023/04/07 05:36:27;;;;;;;26.70;24.27;;;0.30;99.90;;;;;;5041063;28;20296;-45
2023/04/07 05:38:53;;;;;;;26.47;23.90;;;0.30;99.90;;;;;;5059583;28;20177;-42
2023/04/07 05:41:18;;;;;;;26.17;23.70;;;0.40;99.90;;;;;;5057499;28;20184;-46
2023/04/07 05:43:44;;;;;;;26.80;24.50;;;0.40;99.90;;;;;;5058674;28;20225;-46
2023/04/07 05:46:10;;;;;;;27.30;24.60;;;0.40;99.90;;;;;;5060047;28;20285;-50
2023/04/07 05:48:35;;;;;;;27.50;25.10;;;0.40;99.90;;;;;;5063287;28;20242;-46
2023/04/07 05:51:01;;;;;;;26.23;23.60;;;0.50;99.90;;;;;;5060458;28;20243;-48
2023/04/07 05:53:26;;;;;;;25.10;22.90;;;0.50;99.90;;;;;;5062924;28;20205;-44
2023/04/07 05:55:52;;;;;;;25.30;23.00;;;0.60;99.90;;;;;;5063210;28;20177;-44
2023/04/07 05:58:18;;;;;;;26.13;23.90;;;0.70;99.90;;;;;;5062270;28;20515;-45
2023/04/07 06:00:43;;;;;;;27.70;25.10;;;0.80;99.90;;;;;;5060513;28;20258;-44
2023/04/07 06:03:09;;;;;;;26.27;23.87;;;0.80;99.90;;;;;;5061725;28;21030;-43
2023/04/07 06:05:34;;;;;;;25.73;23.33;;;0.90;99.90;;;;;;5061929;28;20185;-45
2023/04/07 06:08:00;;;;;;;25.00;22.90;;;1.00;99.90;;;;;;5062389;28;21038;-45
2023/04/07 06:10:26;;;;;;;25.27;22.97;;;1.10;99.90;;;;;;5062325;28;20227;-42
2023/04/07 06:12:51;;;;;;;25.73;23.57;;;1.30;99.90;;;;;;5061162;28;20229;-46
2023/04/07 06:15:17;;;;;;;25.77;23.40;;;1.40;99.90;;;;;;5061586;28;20205;-43
2023/04/07 06:17:44;;;;;;;24.83;22.83;;;1.60;99.90;;;;;;5043745;28;20672;-44
2023/04/07 06:20:10;;;;;;;24.08;22.08;;;1.70;99.90;;;;;;5059241;28;20184;-46
2023/04/07 06:22:36;;;;;;;25.35;22.95;;;1.80;99.90;;;;;;5060398;28;20228;-42
2023/04/07 06:25:01;;;;;;;25.50;23.10;;;1.90;99.90;;;;;;5060873;28;20562;-47
2023/04/07 06:27:27;;;;;;;24.83;22.60;;;1.90;99.90;;;;;;5061559;28;20809;-45
2023/04/07 06:29:53;;;;;;;25.90;23.50;;;2.00;99.90;;;;;;5058912;28;20186;-50
2023/04/07 06:32:19;;;;;;;25.87;23.60;;;2.00;99.90;;;;;;5061042;28;20424;-44
2023/04/07 06:34:44;;;;;;;24.17;22.07;;;2.00;99.90;;;;;;5059829;28;20717;-47
2023/04/07 06:37:10;;;;;;;24.63;22.27;;;2.20;99.90;;;;;;5061133;28;20415;-44
2023/04/07 06:39:37;;;;;;;24.50;22.50;;;2.30;99.90;;;;;;5055962;28;20218;-44
2023/04/07 06:42:02;;;;;;;23.98;22.08;;;2.40;99.90;;;;;;5057402;28;20208;-43
2023/04/07 06:44:28;;;;;;;25.40;23.23;;;2.50;99.90;;;;;;5058988;28;20782;-43
2023/04/07 06:46:54;;;;;;;25.70;23.60;;;2.60;99.90;;;;;;5059175;28;20231;-44
2023/04/07 06:49:20;;;;;;;25.00;23.00;;;2.50;99.90;;;;;;5057893;28;20687;-48
2023/04/07 06:51:46;;;;;;;24.05;22.05;;;2.60;99.90;;;;;;5059169;28;20427;-47
2023/04/07 06:54:12;;;;;;;25.20;23.07;;;2.70;99.90;;;;;;5058172;28;20289;-47
2023/04/07 06:56:40;;;;;;;25.63;23.23;;;2.80;99.90;;;;;;5060465;28;20539;-48
2023/04/07 06:59:05;;;;;;;24.65;22.63;;;2.90;99.90;;;;;;5061075;28;20173;-47
2023/04/07 07:01:32;;;;;;;26.17;23.73;;;3.10;99.90;;;;;;5060284;28;20201;-46
2023/04/07 07:03:59;;;;;;;24.05;22.00;;;3.20;99.90;;;;;;5056094;28;20276;-45
2023/04/07 07:06:26;;;;;;;25.30;22.85;;;3.40;99.90;;;;;;5057758;28;20177;-49
2023/04/07 07:08:52;;;;;;;24.25;22.15;;;3.60;99.90;;;;;;5057859;28;20193;-49
2023/04/07 07:11:18;;;;;;;26.15;23.75;;;3.80;99.90;;;;;;5054942;28;20181;-49
2023/04/07 07:13:44;;;;;;;23.77;21.67;;;3.90;99.90;;;;;;5059287;28;20294;-45
2023/04/07 07:16:11;;;;;;;23.63;21.60;;;4.00;99.90;;;;;;5060778;28;20365;-46
2023/04/07 07:18:37;;;;;;;24.50;22.40;;;4.10;99.80;;;;;;5058797;28;20435;-47
2023/04/07 07:21:03;;;;;;;23.40;21.30;;;4.20;98.70;;;;;;5058393;28;20219;-48
2023/04/07 07:23:28;;;;;;;24.33;22.52;;;4.30;98.80;;;;;;5042026;28;20233;-48
2023/04/07 07:25:54;;;;;;;24.27;22.27;;;4.50;98.50;;;;;;5051015;28;20264;-46
2023/04/07 07:28:20;;;;;;;26.43;23.77;;;4.50;97.50;;;;;;5055461;28;20209;-53
2023/04/07 07:30:46;;;;;;;22.75;21.05;;;4.60;97.00;;;;;;5058579;28;20277;-48
2023/04/07 07:33:12;;;;;;;24.08;22.02;;;4.70;96.90;;;;;;5042539;28;20209;-47
2023/04/07 07:35:39;;;;;;;23.53;21.53;;;4.80;96.80;;;;;;5059740;28;20189;-50
2023/04/07 07:38:04;;;;;;;22.15;20.25;;;4.90;96.30;;;;;;5056050;28;20502;-47
2023/04/07 07:40:32;;;;;;;23.37;21.50;;;5.10;95.90;;;;;;5059748;28;20185;-46
2023/04/07 07:42:59;;;;;;;24.75;22.70;;;5.20;95.70;;;;;;5059686;28;20177;-45
2023/04/07 07:45:24;;;;;;;22.75;20.95;;;5.30;95.40;;;;;;5061129;28;20180;-45
2023/04/07 07:47:50;;;;;;;23.20;21.40;;;5.40;94.80;;;;;;5056063;28;20254;-47
2023/04/07 07:50:17;;;;;;;23.90;21.70;;;5.60;94.40;;;;;;5057486;28;20683;-46
2023/04/07 07:52:43;;;;;;;21.02;19.42;;;5.70;94.10;;;;;;5058588;28;20204;-45
2023/04/07 07:55:10;;;;;;;23.83;21.90;;;5.90;94.00;;;;;;5040627;28;20212;-45
2023/04/07 07:57:36;;;;;;;22.15;20.55;;;6.10;93.30;;;;;;5059188;28;20174;-46
2023/04/07 08:00:02;;;;;;;21.87;20.23;;;6.30;93.10;;;;;;5055031;28;20214;-44
2023/04/07 08:02:31;;;;;;;23.27;21.38;;;6.50;92.40;;;;;;5054661;28;20249;-44
2023/04/07 08:04:57;;;;;;;23.37;21.63;;;6.60;91.20;;;;;;5055899;28;20191;-50
2023/04/07 08:07:23;;;;;;;22.67;20.63;;;6.70;90.20;;;;;;5054407;28;20945;-48
2023/04/07 08:09:49;;;;;;;23.70;21.77;;;6.90;90.50;;;;;;5053626;28;20448;-45
2023/04/07 08:12:15;;;;;;;22.73;21.10;;;7.10;88.80;;;;;;5055912;28;20434;-49
2023/04/07 08:14:40;;;;;;;23.60;21.80;;;7.40;88.50;;;;;;5058423;28;20752;-46
2023/04/07 08:17:06;;;;;;;22.80;21.13;;;7.70;86.10;;;;;;5059431;28;20589;-47
2023/04/07 08:19:32;;;;;;;22.53;20.80;;;8.10;85.20;;;;;;5056611;28;20271;-48
2023/04/07 08:21:57;;;;;;;23.30;21.60;;;8.40;81.90;;;;;;5057401;28;20232;-46
2023/04/07 08:24:23;;;;;;;23.30;21.50;;;8.80;80.70;;;;;;5058549;28;20224;-49
2023/04/07 08:26:48;;;;;;;22.67;20.73;;;9.20;79.70;;;;;;5058347;28;20181;-46
2023/04/07 08:29:14;;;;;;;22.90;21.00;;;9.50;77.50;;;;;;5041202;28;20189;-45
2023/04/07 08:31:40;;;;;;;23.83;22.03;;;9.60;76.50;;;;;;5059387;28;20287;-48
2023/04/07 08:34:06;;;;;;;23.83;22.03;;;9.70;77.10;;;;;;5058402;28;20210;-47
2023/04/07 08:36:31;;;;;;;22.07;20.27;;;9.80;75.70;;;;;;5059341;28;20321;-45
2023/04/07 08:38:59;;;;;;;24.07;22.13;;;9.90;74.00;;;;;;5059315;28;20207;-48
2023/04/07 08:41:41;;;;;;;24.03;22.07;;;10.10;71.60;;;;;;5057766;28;20184;-48
2023/04/07 08:44:09;;;;;;;23.40;21.63;;;10.20;70.50;;;;;;5057974;28;20439;-46
2023/04/07 08:46:38;;;;;;;23.17;21.40;;;10.40;70.40;;;;;;5059376;28;20828;-48
2023/04/07 08:49:07;;;;;;;23.10;21.30;;;10.40;67.90;;;;;;5057931;28;20462;-54
2023/04/07 08:51:34;;;;;;;23.77;21.80;;;10.40;68.00;;;;;;5059494;28;20438;-46
2023/04/07 08:54:04;;;;;;;23.80;22.00;;;10.50;68.20;;;;;;5057656;28;20478;-51
2023/04/07 08:56:32;;;;;;;23.10;21.40;;;10.60;67.20;;;;;;5058346;28;20925;-46
2023/04/07 08:59:00;;;;;;;23.37;21.50;;;10.70;63.60;;;;;;5059201;28;20423;-45
2023/04/07 09:01:26;;;;;;;22.83;21.13;;;10.80;63.40;;;;;;5059409;28;20480;-48
2023/04/07 09:03:52;;;;;;;23.37;21.47;;;11.00;63.50;;;;;;5058395;28;20845;-48
2023/04/07 09:06:18;;;;;;;22.43;20.90;;;11.20;64.20;;;;;;5059430;28;20488;-49
2023/04/07 09:08:44;;;;;;;22.70;21.00;;;11.30;61.60;;;;;;5058216;28;20463;-45
2023/04/07 09:11:10;;;;;;;23.37;21.60;;;11.40;60.00;;;;;;5059204;28;20260;-49
2023/04/07 09:13:36;;;;;;;23.53;21.77;;;11.40;59.10;;;;;;5037871;28;20205;-50
2023/04/07 09:16:02;;;;;;;23.50;21.70;;;11.50;57.20;;;;;;5055157;28;20454;-47
2023/04/07 09:18:28;;;;;;;23.13;21.43;;;11.40;55.90;;;;;;5056749;28;20212;-45
2023/04/07 09:21:06;;;;;;;23.60;21.80;;;11.50;56.30;;;;;;5040187;28;20193;-49
2023/04/07 09:23:36;;;;;;;23.40;21.60;;;11.60;55.60;;;;;;5061465;28;20505;-54
2023/04/07 09:26:20;;;;;;;21.90;20.20;;;11.50;54.50;;;;;;5062324;28;20470;-47
2023/04/07 09:28:49;;;;;;;23.30;21.40;;;11.40;53.50;;;;;;5062296;28;20427;-48
2023/04/07 09:31:15;;;;;;;23.00;21.20;;;11.50;53.10;;;;;;5062226;28;20446;-49
2023/04/07 09:33:41;;;;;;;23.57;21.63;;;11.60;52.60;;;;;;5061664;28;20467;-49
2023/04/07 09:36:07;;;;;;;23.90;22.20;;;11.70;52.70;;;;;;5062466;28;20427;-47
2023/04/07 09:38:39;;;;;;;23.20;21.37;;;11.80;52.80;;;;;;5062364;28;20442;-49
2023/04/07 09:41:09;;;;;;;22.40;20.80;;;12.00;52.50;;;;;;5060903;28;20442;-45
2023/04/07 09:43:40;;;;;;;22.83;20.93;;;12.00;52.60;;;;;;5043796;28;20465;-48
2023/04/07 09:46:14;;;;;;;21.97;20.30;;;12.10;51.60;;;;;;5062387;28;20451;-49
2023/04/07 09:48:40;;;;;;;23.17;21.37;;;12.10;50.90;;;;;;5062451;28;20446;-47
2023/04/07 09:51:11;;;;;;;23.10;21.20;;;12.20;50.70;;;;;;5062026;28;20438;-46
2023/04/07 09:53:45;;;;;;;22.30;20.60;;;12.10;50.20;;;;;;5062523;28;20459;-51
2023/04/07 09:56:10;;;;;;;22.47;20.77;;;12.20;49.60;;;;;;5062286;28;20904;-48
2023/04/07 09:58:39;;;;;;;20.23;18.63;;;12.10;48.80;;;;;;5062440;28;20459;-49
2023/04/07 10:01:08;;;;;;;20.77;19.40;;;12.20;48.90;;;;;;5059330;28;20439;-47
2023/04/07 10:03:34;;;;;;;21.40;19.83;;;12.30;50.00;;;;;;5061234;28;20920;-45
2023/04/07 10:06:00;;;;;;;20.70;19.30;;;12.30;48.20;;;;;;5062307;28;20439;-50
2023/04/07 10:08:27;;;;;;;20.73;19.30;;;12.30;48.10;;;;;;5058982;28;20442;-44
2023/04/07 10:10:56;;;;;;;20.67;19.13;;;12.20;47.10;;;;;;5054061;28;20439;-53
2023/04/07 10:13:23;;;;;;;20.87;19.27;;;12.10;47.90;;;;;;5062379;28;20459;-44
2023/04/07 10:15:49;;;;;;;19.77;18.27;;;12.20;47.50;;;;;;5061714;28;21068;-46
2023/04/07 10:18:17;;;;;;;19.57;17.93;;;12.20;47.00;;;;;;5060748;28;20526;-47
2023/04/07 10:20:44;;;;;;;18.90;17.60;;;12.30;45.50;;;;;;5059472;28;20435;-43
2023/04/07 10:23:36;;;;;;;19.53;18.17;;;12.40;46.10;;;;;;5057555;28;20467;-46
2023/04/07 10:26:04;;;;;;;18.93;17.63;;;12.50;44.40;;;;;;5060768;28;21009;-43
2023/04/07 10:28:32;;;;;;;16.90;15.70;;;12.60;44.20;;;;;;5061762;28;20482;-46
2023/04/07 10:30:58;;;;;;;16.90;15.80;;;12.70;43.00;;;;;;5061521;28;20430;-45
2023/04/07 10:33:43;;;;;;;14.80;13.87;;;12.80;41.00;;;;;;5059959;28;20466;-46
2023/04/07 10:36:09;;;;;;;16.63;15.53;;;12.90;40.60;;;;;;5058659;28;20436;-45
2023/04/07 10:38:35;;;;;;;15.80;14.70;;;13.20;41.30;;;;;;5061477;28;20500;-45
2023/04/07 10:41:33;;;;;;;17.33;16.10;;;13.40;40.60;;;;;;5059868;28;20177;-43
2023/04/07 10:43:59;;;;;;;18.50;17.20;;;13.60;38.40;;;;;;5061453;28;20514;-45
2023/04/07 10:46:38;;;;;;;16.83;15.73;;;13.80;39.30;;;;;;5057953;28;20496;-43
2023/04/07 10:49:15;;;;;;;17.37;16.17;;;13.70;37.20;;;;;;5059154;28;20816;-45
2023/04/07 10:51:41;;;;;;;16.90;15.80;;;13.60;36.30;;;;;;5061937;28;20418;-42
2023/04/07 10:54:32;;;;;;;17.40;16.30;;;13.90;38.00;;;;;;5060539;28;20818;-42
2023/04/07 10:57:09;;;;;;;16.37;15.03;;;14.20;37.00;;;;;;5059351;28;20475;-44
2023/04/07 10:59:36;;;;;;;17.10;15.93;;;14.50;35.30;;;;;;5059246;28;21011;-47
2023/04/07 11:02:22;;;;;;;16.13;15.00;;;14.70;34.70;;;;;;5059581;28;20454;-43
2023/04/07 11:04:48;;;;;;;17.93;16.73;;;14.90;34.70;;;;;;5053355;28;20429;-46
2023/04/07 11:07:15;;;;;;;17.50;16.40;;;15.30;33.90;;;;;;5059882;28;20928;-43
2023/04/07 11:09:41;;;;;;;16.90;15.60;;;15.50;32.70;;;;;;5060252;28;20185;-44
2023/04/07 11:12:07;;;;;;;18.33;17.07;;;15.60;31.50;;;;;;5058382;28;20445;-44
2023/04/07 11:14:36;;;;;;;17.40;16.20;;;15.60;32.00;;;;;;5060071;28;20471;-45
2023/04/07 11:17:02;;;;;;;17.20;16.10;;;15.30;31.50;;;;;;5060264;28;20520;-42
2023/04/07 11:19:28;;;;;;;16.93;15.87;;;15.20;31.30;;;;;;5059158;28;20427;-44
2023/04/07 11:22:13;;;;;;;18.70;17.37;;;15.10;32.30;;;;;;5059610;28;20707;-46
2023/04/07 11:24:39;;;;;;;16.80;15.60;;;15.20;32.20;;;;;;5042277;28;20878;-43
2023/04/07 11:27:05;;;;;;;17.90;16.70;;;15.40;32.10;;;;;;5042193;28;20431;-42
2023/04/07 11:29:32;;;;;;;18.13;16.73;;;15.90;32.60;;;;;;5058238;28;20173;-45
2023/04/07 11:32:01;;;;;;;22.30;20.67;;;16.10;30.60;;;;;;5060327;28;20784;-43
2023/04/07 11:34:36;;;;;;;18.23;16.90;;;16.70;30.50;;;;;;5058725;28;20957;-47
2023/04/07 11:37:27;;;;;;;18.77;17.33;;;17.50;30.40;;;;;;5059708;28;20427;-43
2023/04/07 11:39:54;;;;;;;18.23;16.93;;;18.30;29.00;;;;;;5058451;28;20996;-45
2023/04/07 11:42:37;;;;;;;18.50;17.20;;;18.70;28.00;;;;;;5059948;28;21096;-46
2023/04/07 11:45:03;;;;;;;17.57;16.47;;;19.00;26.40;;;;;;5058668;28;20442;-44
2023/04/07 11:47:36;;;;;;;18.43;17.13;;;19.30;25.50;;;;;;5060032;28;20419;-43
2023/04/07 11:50:02;;;;;;;18.57;17.20;;;19.30;23.80;;;;;;5059023;28;20439;-42
2023/04/07 11:52:28;;;;;;;16.80;15.50;;;19.00;25.00;;;;;;5059190;28;20457;-47
2023/04/07 11:54:54;;;;;;;19.27;17.97;;;18.90;25.50;;;;;;5060007;28;20454;-47
2023/04/07 11:57:27;;;;;;;18.40;17.10;;;18.90;26.00;;;;;;5058874;28;20185;-46
2023/04/07 12:00:07;;;;;;;17.80;16.60;;;18.60;26.00;;;;;;5057403;28;20185;-48
2023/04/07 12:02:33;;;;;;;18.60;17.30;;;18.10;26.20;;;;;;5058978;28;20793;-43
2023/04/07 12:04:59;;;;;;;19.60;18.30;;;18.10;26.60;;;;;;5059057;28;20487;-47
2023/04/07 12:07:25;;;;;;;19.27;17.97;;;17.80;26.50;;;;;;5057395;28;20449;-48
2023/04/07 12:09:52;;;;;;;18.87;17.60;;;17.50;27.10;;;;;;5057222;28;20439;-44
2023/04/07 12:12:26;;;;;;;19.70;18.40;;;17.10;27.50;;;;;;5058190;28;20541;-49
2023/04/07 12:14:51;;;;;;;19.30;18.00;;;16.90;27.10;;;;;;5056668;28;20470;-48
2023/04/07 12:17:20;;;;;;;19.80;18.33;;;16.60;27.50;;;;;;5057420;28;20431;-47
2023/04/07 12:19:46;;;;;;;20.90;19.30;;;16.30;28.10;;;;;;5057942;28;20279;-45
2023/04/07 12:22:11;;;;;;;19.17;17.87;;;16.10;29.10;;;;;;5057486;28;20467;-45
2023/04/07 12:24:38;;;;;;;19.50;18.20;;;16.00;28.60;;;;;;5056446;28;20197;-46
2023/04/07 12:27:03;;;;;;;20.53;18.93;;;15.90;29.50;;;;;;5057533;28;20526;-46
2023/04/07 12:29:29;;;;;;;21.47;19.90;;;15.90;30.00;;;;;;5057899;28;20465;-49
2023/04/07 12:31:55;;;;;;;22.07;20.27;;;15.90;30.00;;;;;;5057595;28;20268;-47